sensor_id;sensor_type;location;lat;lon;timestamp;temperature;humidity
60909;DHT22;46780;48.128;-1.704;2022-07-23T00:01:55;17.50;79.70
60909;DHT22;46780;48.128;-1.704;2022-07-23T00:04:22;17.60;79.70
60909;DHT22;46780;48.128;-1.704;2022-07-23T00:06:48;17.40;80.00
60909;DHT22;46780;48.128;-1.704;2022-07-23T00:09:15;17.40;80.20
60909;DHT22;46780;48.128;-1.704;2022-07-23T00:11:43;17.40;80.30
60909;DHT22;46780;48.128;-1.704;2022-07-23T00:14:09;17.40;80.30
60909;DHT22;46780;48.128;-1.704;2022-07-23T01:25:14;17.30;80.30
60909;DHT22;46780;48.128;-1.704;2022-07-23T01:27:40;17.00;81.60
60909;DHT22;46780;48.128;-1.704;2022-07-23T01:30:08;17.00;81.30
60909;DHT22;46780;48.128;-1.704;2022-07-23T01:32:34;16.90;81.50
60909;DHT22;46780;48.128;-1.704;2022-07-23T01:35:01;17.00;81.50
60909;DHT22;46780;48.128;-1.704;2022-07-23T01:37:28;17.00;81.40
60909;DHT22;46780;48.128;-1.704;2022-07-23T01:39:55;17.00;82.20
60909;DHT22;46780;48.128;-1.704;2022-07-23T01:42:22;17.00;81.50
60909;DHT22;46780;48.128;-1.704;2022-07-23T01:44:49;17.00;81.60
60909;DHT22;46780;48.128;-1.704;2022-07-23T01:47:15;17.00;81.50
60909;DHT22;46780;48.128;-1.704;2022-07-23T01:49:42;17.00;81.30
60909;DHT22;46780;48.128;-1.704;2022-07-23T01:52:08;17.10;81.10
60909;DHT22;46780;48.128;-1.704;2022-07-23T01:54:35;17.10;80.80
60909;DHT22;46780;48.128;-1.704;2022-07-23T01:57:03;17.10;80.70
60909;DHT22;46780;48.128;-1.704;2022-07-23T01:59:30;17.10;80.50
60909;DHT22;46780;48.128;-1.704;2022-07-23T02:01:57;17.10;80.50
60909;DHT22;46780;48.128;-1.704;2022-07-23T02:04:24;17.00;80.80
60909;DHT22;46780;48.128;-1.704;2022-07-23T02:06:52;17.00;80.70
60909;DHT22;46780;48.128;-1.704;2022-07-23T02:09:19;17.00;80.60
60909;DHT22;46780;48.128;-1.704;2022-07-23T02:11:46;16.90;80.80
60909;DHT22;46780;48.128;-1.704;2022-07-23T02:14:14;16.90;80.90
60909;DHT22;46780;48.128;-1.704;2022-07-23T02:16:40;16.80;81.40
60909;DHT22;46780;48.128;-1.704;2022-07-23T02:19:07;16.80;81.70
60909;DHT22;46780;48.128;-1.704;2022-07-23T02:21:33;16.80;82.00
60909;DHT22;46780;48.128;-1.704;2022-07-23T02:24:00;16.80;82.00
60909;DHT22;46780;48.128;-1.704;2022-07-23T02:26:26;16.80;81.80
60909;DHT22;46780;48.128;-1.704;2022-07-23T02:28:53;16.80;81.70
60909;DHT22;46780;48.128;-1.704;2022-07-23T02:31:21;16.80;81.90
60909;DHT22;46780;48.128;-1.704;2022-07-23T02:33:47;16.80;82.10
60909;DHT22;46780;48.128;-1.704;2022-07-23T02:36:14;16.80;82.20
60909;DHT22;46780;48.128;-1.704;2022-07-23T02:38:40;16.80;82.10
60909;DHT22;46780;48.128;-1.704;2022-07-23T02:41:07;16.80;82.20
60909;DHT22;46780;48.128;-1.704;2022-07-23T02:43:34;16.80;82.20
60909;DHT22;46780;48.128;-1.704;2022-07-23T02:46:00;16.90;81.90
60909;DHT22;46780;48.128;-1.704;2022-07-23T02:48:28;16.90;82.10
60909;DHT22;46780;48.128;-1.704;2022-07-23T02:50:54;16.80;82.10
60909;DHT22;46780;48.128;-1.704;2022-07-23T02:53:21;16.80;82.20
60909;DHT22;46780;48.128;-1.704;2022-07-23T02:55:47;16.90;82.20
60909;DHT22;46780;48.128;-1.704;2022-07-23T02:58:14;16.90;82.20
60909;DHT22;46780;48.128;-1.704;2022-07-23T03:00:40;16.90;82.10
60909;DHT22;46780;48.128;-1.704;2022-07-23T03:03:07;16.90;82.30
60909;DHT22;46780;48.128;-1.704;2022-07-23T03:05:35;16.80;82.30
60909;DHT22;46780;48.128;-1.704;2022-07-23T03:08:01;16.80;82.50
60909;DHT22;46780;48.128;-1.704;2022-07-23T03:10:28;16.90;82.40
60909;DHT22;46780;48.128;-1.704;2022-07-23T03:12:54;16.80;82.60
60909;DHT22;46780;48.128;-1.704;2022-07-23T03:15:21;16.80;82.50
60909;DHT22;46780;48.128;-1.704;2022-07-23T03:17:47;16.80;83.80
60909;DHT22;46780;48.128;-1.704;2022-07-23T03:20:14;16.80;82.80
60909;DHT22;46780;48.128;-1.704;2022-07-23T03:22:41;16.80;83.00
60909;DHT22;46780;48.128;-1.704;2022-07-23T03:25:09;16.80;83.00
60909;DHT22;46780;48.128;-1.704;2022-07-23T03:27:35;16.70;83.40
60909;DHT22;46780;48.128;-1.704;2022-07-23T03:30:02;16.60;83.90
60909;DHT22;46780;48.128;-1.704;2022-07-23T03:32:29;16.50;84.50
60909;DHT22;46780;48.128;-1.704;2022-07-23T03:34:55;16.50;85.10
60909;DHT22;46780;48.128;-1.704;2022-07-23T03:37:22;16.40;85.70
60909;DHT22;46780;48.128;-1.704;2022-07-23T03:39:50;16.30;86.00
60909;DHT22;46780;48.128;-1.704;2022-07-23T03:42:16;16.30;86.60
60909;DHT22;46780;48.128;-1.704;2022-07-23T03:44:43;16.30;86.90
60909;DHT22;46780;48.128;-1.704;2022-07-23T03:47:09;16.20;87.10
60909;DHT22;46780;48.128;-1.704;2022-07-23T03:49:35;16.20;87.40
60909;DHT22;46780;48.128;-1.704;2022-07-23T03:52:02;16.10;87.70
60909;DHT22;46780;48.128;-1.704;2022-07-23T03:54:29;16.10;88.00
60909;DHT22;46780;48.128;-1.704;2022-07-23T03:56:57;16.00;88.20
60909;DHT22;46780;48.128;-1.704;2022-07-23T03:59:23;16.00;88.10
60909;DHT22;46780;48.128;-1.704;2022-07-23T04:01:50;15.90;88.10
60909;DHT22;46780;48.128;-1.704;2022-07-23T04:04:16;15.90;88.30
60909;DHT22;46780;48.128;-1.704;2022-07-23T04:06:43;15.90;88.60
60909;DHT22;46780;48.128;-1.704;2022-07-23T04:09:09;15.90;88.30
60909;DHT22;46780;48.128;-1.704;2022-07-23T04:11:36;15.90;88.30
60909;DHT22;46780;48.128;-1.704;2022-07-23T04:14:04;15.90;88.30
60909;DHT22;46780;48.128;-1.704;2022-07-23T04:16:30;15.80;88.30
60909;DHT22;46780;48.128;-1.704;2022-07-23T04:18:57;15.80;88.30
60909;DHT22;46780;48.128;-1.704;2022-07-23T04:21:24;15.80;88.30
60909;DHT22;46780;48.128;-1.704;2022-07-23T04:23:50;15.80;88.60
60909;DHT22;46780;48.128;-1.704;2022-07-23T04:26:17;15.70;88.60
60909;DHT22;46780;48.128;-1.704;2022-07-23T04:28:43;15.70;88.90
60909;DHT22;46780;48.128;-1.704;2022-07-23T04:31:11;15.70;89.10
60909;DHT22;46780;48.128;-1.704;2022-07-23T04:33:37;15.60;89.20
60909;DHT22;46780;48.128;-1.704;2022-07-23T04:36:04;15.60;89.60
60909;DHT22;46780;48.128;-1.704;2022-07-23T04:38:31;15.50;90.00
60909;DHT22;46780;48.128;-1.704;2022-07-23T04:40:57;15.40;90.10
60909;DHT22;46780;48.128;-1.704;2022-07-23T04:43:23;15.40;90.20
60909;DHT22;46780;48.128;-1.704;2022-07-23T04:45:50;15.30;90.30
60909;DHT22;46780;48.128;-1.704;2022-07-23T04:48:18;15.30;90.50
60909;DHT22;46780;48.128;-1.704;2022-07-23T04:50:44;15.30;90.60
60909;DHT22;46780;48.128;-1.704;2022-07-23T04:53:11;15.20;90.60
60909;DHT22;46780;48.128;-1.704;2022-07-23T04:55:37;15.20;90.70
60909;DHT22;46780;48.128;-1.704;2022-07-23T04:58:03;15.20;90.70
60909;DHT22;46780;48.128;-1.704;2022-07-23T05:02:57;15.10;91.40
60909;DHT22;46780;48.128;-1.704;2022-07-23T05:07:51;15.10;91.50
60909;DHT22;46780;48.128;-1.704;2022-07-23T05:10:18;15.10;91.50
60909;DHT22;46780;48.128;-1.704;2022-07-23T05:12:45;15.00;91.50
60909;DHT22;46780;48.128;-1.704;2022-07-23T05:15:12;15.00;91.60
60909;DHT22;46780;48.128;-1.704;2022-07-23T05:17:38;15.10;91.90
60909;DHT22;46780;48.128;-1.704;2022-07-23T05:20:06;15.10;91.40
60909;DHT22;46780;48.128;-1.704;2022-07-23T07:12:45;15.00;91.50
60909;DHT22;46780;48.128;-1.704;2022-07-23T07:15:12;17.40;90.40
60909;DHT22;46780;48.128;-1.704;2022-07-23T07:17:39;17.50;90.20
60909;DHT22;46780;48.128;-1.704;2022-07-23T07:20:06;17.60;89.90
60909;DHT22;46780;48.128;-1.704;2022-07-23T07:22:34;17.70;89.80
60909;DHT22;46780;48.128;-1.704;2022-07-23T07:25:00;17.80;89.30
60909;DHT22;46780;48.128;-1.704;2022-07-23T07:27:27;17.90;89.20
60909;DHT22;46780;48.128;-1.704;2022-07-23T07:29:54;18.00;89.20
60909;DHT22;46780;48.128;-1.704;2022-07-23T07:32:20;18.10;89.30
60909;DHT22;46780;48.128;-1.704;2022-07-23T07:34:47;18.20;89.20
60909;DHT22;46780;48.128;-1.704;2022-07-23T07:37:13;18.40;88.60
60909;DHT22;46780;48.128;-1.704;2022-07-23T07:39:41;18.50;87.60
60909;DHT22;46780;48.128;-1.704;2022-07-23T07:42:08;18.70;86.50
60909;DHT22;46780;48.128;-1.704;2022-07-23T07:44:34;18.80;86.30
60909;DHT22;46780;48.128;-1.704;2022-07-23T07:47:01;18.90;86.00
60909;DHT22;46780;48.128;-1.704;2022-07-23T07:49:27;19.00;85.50
60909;DHT22;46780;48.128;-1.704;2022-07-23T07:51:54;19.20;84.40
60909;DHT22;46780;48.128;-1.704;2022-07-23T07:54:20;19.30;84.00
60909;DHT22;46780;48.128;-1.704;2022-07-23T07:56:48;19.40;83.30
60909;DHT22;46780;48.128;-1.704;2022-07-23T07:59:15;19.60;82.20
60909;DHT22;46780;48.128;-1.704;2022-07-23T08:01:42;19.60;81.70
60909;DHT22;46780;48.128;-1.704;2022-07-23T08:04:08;19.70;81.80
60909;DHT22;46780;48.128;-1.704;2022-07-23T08:06:35;19.90;81.40
60909;DHT22;46780;48.128;-1.704;2022-07-23T08:09:01;20.10;79.80
60909;DHT22;46780;48.128;-1.704;2022-07-23T08:11:28;20.10;79.40
60909;DHT22;46780;48.128;-1.704;2022-07-23T08:13:55;20.30;79.50
60909;DHT22;46780;48.128;-1.704;2022-07-23T08:16:22;20.40;78.60
60909;DHT22;46780;48.128;-1.704;2022-07-23T08:18:48;20.60;77.30
60909;DHT22;46780;48.128;-1.704;2022-07-23T08:21:15;20.70;76.00
60909;DHT22;46780;48.128;-1.704;2022-07-23T08:23:41;20.80;74.30
60909;DHT22;46780;48.128;-1.704;2022-07-23T08:26:08;21.00;73.10
60909;DHT22;46780;48.128;-1.704;2022-07-23T08:28:34;21.00;73.70
60909;DHT22;46780;48.128;-1.704;2022-07-23T08:31:02;21.20;72.90
60909;DHT22;46780;48.128;-1.704;2022-07-23T08:33:29;21.30;71.50
60909;DHT22;46780;48.128;-1.704;2022-07-23T08:35:55;21.30;71.00
60909;DHT22;46780;48.128;-1.704;2022-07-23T08:38:22;21.20;71.00
60909;DHT22;46780;48.128;-1.704;2022-07-23T08:40:50;21.10;70.70
60909;DHT22;46780;48.128;-1.704;2022-07-23T08:43:18;21.10;70.40
60909;DHT22;46780;48.128;-1.704;2022-07-23T08:45:46;21.00;71.40
60909;DHT22;46780;48.128;-1.704;2022-07-23T08:48:16;21.10;71.50
60909;DHT22;46780;48.128;-1.704;2022-07-23T08:50:43;21.30;70.40
60909;DHT22;46780;48.128;-1.704;2022-07-23T08:53:10;21.40;69.60
60909;DHT22;46780;48.128;-1.704;2022-07-23T08:55:37;21.60;68.20
60909;DHT22;46780;48.128;-1.704;2022-07-23T08:58:03;21.80;67.30
60909;DHT22;46780;48.128;-1.704;2022-07-23T09:00:30;21.80;66.00
60909;DHT22;46780;48.128;-1.704;2022-07-23T09:02:57;21.90;65.30
60909;DHT22;46780;48.128;-1.704;2022-07-23T09:05:25;21.90;64.60
60909;DHT22;46780;48.128;-1.704;2022-07-23T09:08:09;22.00;63.90
60909;DHT22;46780;48.128;-1.704;2022-07-23T09:10:49;22.00;64.20
60909;DHT22;46780;48.128;-1.704;2022-07-23T09:13:33;22.20;64.50
60909;DHT22;46780;48.128;-1.704;2022-07-23T09:16:03;22.60;64.30
60909;DHT22;46780;48.128;-1.704;2022-07-23T09:18:35;23.20;61.80
60909;DHT22;46780;48.128;-1.704;2022-07-23T09:21:18;24.00;59.40
60909;DHT22;46780;48.128;-1.704;2022-07-23T09:23:47;25.00;57.60
60909;DHT22;46780;48.128;-1.704;2022-07-23T09:26:24;25.90;54.60
60909;DHT22;46780;48.128;-1.704;2022-07-23T09:28:55;26.80;51.70
60909;DHT22;46780;48.128;-1.704;2022-07-23T09:31:23;27.40;49.80
60909;DHT22;46780;48.128;-1.704;2022-07-23T09:33:49;28.00;47.70
60909;DHT22;46780;48.128;-1.704;2022-07-23T09:36:27;28.50;44.50
60909;DHT22;46780;48.128;-1.704;2022-07-23T09:38:54;28.80;43.50
60909;DHT22;46780;48.128;-1.704;2022-07-23T09:41:20;29.10;40.20
60909;DHT22;46780;48.128;-1.704;2022-07-23T09:43:47;29.10;40.60
60909;DHT22;46780;48.128;-1.704;2022-07-23T09:46:20;29.40;39.20
60909;DHT22;46780;48.128;-1.704;2022-07-23T09:48:48;29.50;39.50
60909;DHT22;46780;48.128;-1.704;2022-07-23T09:51:14;29.20;40.80
60909;DHT22;46780;48.128;-1.704;2022-07-23T09:53:43;29.40;40.60
60909;DHT22;46780;48.128;-1.704;2022-07-23T09:56:11;29.70;40.80
60909;DHT22;46780;48.128;-1.704;2022-07-23T09:58:40;30.40;38.50
60909;DHT22;46780;48.128;-1.704;2022-07-23T10:01:06;30.70;37.10
60909;DHT22;46780;48.128;-1.704;2022-07-23T10:03:33;30.40;37.40
60909;DHT22;46780;48.128;-1.704;2022-07-23T10:06:00;30.30;37.00
60909;DHT22;46780;48.128;-1.704;2022-07-23T10:08:26;30.00;36.70
60909;DHT22;46780;48.128;-1.704;2022-07-23T10:10:55;29.40;36.90
60909;DHT22;46780;48.128;-1.704;2022-07-23T10:13:21;28.90;38.80
60909;DHT22;46780;48.128;-1.704;2022-07-23T10:15:48;28.70;39.80
60909;DHT22;46780;48.128;-1.704;2022-07-23T10:18:15;29.00;40.40
60909;DHT22;46780;48.128;-1.704;2022-07-23T10:20:43;29.30;39.80
60909;DHT22;46780;48.128;-1.704;2022-07-23T10:23:16;29.60;39.10
60909;DHT22;46780;48.128;-1.704;2022-07-23T10:25:57;30.00;36.70
60909;DHT22;46780;48.128;-1.704;2022-07-23T10:31:25;29.70;36.60
60909;DHT22;46780;48.128;-1.704;2022-07-23T10:33:59;29.70;36.70
60909;DHT22;46780;48.128;-1.704;2022-07-23T10:36:39;29.50;36.40
60909;DHT22;46780;48.128;-1.704;2022-07-23T10:39:11;29.40;38.20
60909;DHT22;46780;48.128;-1.704;2022-07-23T10:41:41;29.70;36.20
60909;DHT22;46780;48.128;-1.704;2022-07-23T10:44:12;29.80;35.90
60909;DHT22;46780;48.128;-1.704;2022-07-23T10:46:57;29.60;36.60
60909;DHT22;46780;48.128;-1.704;2022-07-23T10:49:25;29.80;36.50
60909;DHT22;46780;48.128;-1.704;2022-07-23T10:52:24;29.80;36.20
60909;DHT22;46780;48.128;-1.704;2022-07-23T10:54:52;30.00;36.20
60909;DHT22;46780;48.128;-1.704;2022-07-23T10:57:22;30.00;33.60
60909;DHT22;46780;48.128;-1.704;2022-07-23T11:00:20;29.70;35.10
60909;DHT22;46780;48.128;-1.704;2022-07-23T11:02:49;29.80;34.70
60909;DHT22;46780;48.128;-1.704;2022-07-23T11:05:17;29.70;35.10
60909;DHT22;46780;48.128;-1.704;2022-07-23T11:08:10;29.70;35.20
60909;DHT22;46780;48.128;-1.704;2022-07-23T11:10:38;29.70;35.80
60909;DHT22;46780;48.128;-1.704;2022-07-23T11:13:28;29.80;34.70
60909;DHT22;46780;48.128;-1.704;2022-07-23T11:16:27;29.60;34.90
60909;DHT22;46780;48.128;-1.704;2022-07-23T11:19:08;29.50;35.50
60909;DHT22;46780;48.128;-1.704;2022-07-23T11:21:50;29.50;35.10
60909;DHT22;46780;48.128;-1.704;2022-07-23T11:24:19;29.40;35.30
60909;DHT22;46780;48.128;-1.704;2022-07-23T11:26:54;29.40;35.20
60909;DHT22;46780;48.128;-1.704;2022-07-23T11:29:46;29.30;35.60
60909;DHT22;46780;48.128;-1.704;2022-07-23T11:32:33;29.20;35.10
60909;DHT22;46780;48.128;-1.704;2022-07-23T11:35:00;28.90;36.10
60909;DHT22;46780;48.128;-1.704;2022-07-23T11:37:32;28.90;36.70
60909;DHT22;46780;48.128;-1.704;2022-07-23T11:39:59;29.20;36.80
60909;DHT22;46780;48.128;-1.704;2022-07-23T11:42:25;29.50;34.50
60909;DHT22;46780;48.128;-1.704;2022-07-23T11:44:53;29.50;35.00
60909;DHT22;46780;48.128;-1.704;2022-07-23T11:47:23;29.50;33.60
60909;DHT22;46780;48.128;-1.704;2022-07-23T11:49:52;29.40;33.60
60909;DHT22;46780;48.128;-1.704;2022-07-23T11:52:19;29.40;33.30
60909;DHT22;46780;48.128;-1.704;2022-07-23T11:54:49;29.40;33.80
60909;DHT22;46780;48.128;-1.704;2022-07-23T11:57:17;29.30;34.30
60909;DHT22;46780;48.128;-1.704;2022-07-23T11:59:46;29.40;33.90
60909;DHT22;46780;48.128;-1.704;2022-07-23T12:02:15;29.50;34.80
60909;DHT22;46780;48.128;-1.704;2022-07-23T12:04:42;29.80;34.10
60909;DHT22;46780;48.128;-1.704;2022-07-23T12:07:26;30.00;33.10
60909;DHT22;46780;48.128;-1.704;2022-07-23T12:09:53;29.90;32.60
60909;DHT22;46780;48.128;-1.704;2022-07-23T12:12:20;29.80;32.50
60909;DHT22;46780;48.128;-1.704;2022-07-23T12:14:51;29.40;33.60
60909;DHT22;46780;48.128;-1.704;2022-07-23T12:17:20;29.20;33.10
60909;DHT22;46780;48.128;-1.704;2022-07-23T12:19:47;29.00;33.60
60909;DHT22;46780;48.128;-1.704;2022-07-23T12:22:14;28.50;34.40
60909;DHT22;46780;48.128;-1.704;2022-07-23T12:24:56;28.20;34.80
60909;DHT22;46780;48.128;-1.704;2022-07-23T12:27:24;28.00;35.50
60909;DHT22;46780;48.128;-1.704;2022-07-23T12:29:51;28.00;35.50
60909;DHT22;46780;48.128;-1.704;2022-07-23T12:32:21;28.10;35.40
60909;DHT22;46780;48.128;-1.704;2022-07-23T12:34:49;28.20;35.30
60909;DHT22;46780;48.128;-1.704;2022-07-23T12:37:27;28.10;35.60
60909;DHT22;46780;48.128;-1.704;2022-07-23T12:39:53;28.20;35.30
60909;DHT22;46780;48.128;-1.704;2022-07-23T12:42:20;28.00;35.50
60909;DHT22;46780;48.128;-1.704;2022-07-23T12:45:09;28.00;35.90
60909;DHT22;46780;48.128;-1.704;2022-07-23T12:47:56;28.10;36.90
60909;DHT22;46780;48.128;-1.704;2022-07-23T12:50:33;28.10;35.90
60909;DHT22;46780;48.128;-1.704;2022-07-23T12:53:04;28.20;36.40
60909;DHT22;46780;48.128;-1.704;2022-07-23T12:55:31;28.20;35.80
60909;DHT22;46780;48.128;-1.704;2022-07-23T12:58:06;28.40;35.30
60909;DHT22;46780;48.128;-1.704;2022-07-23T13:00:52;28.30;35.50
60909;DHT22;46780;48.128;-1.704;2022-07-23T13:03:24;28.20;35.40
60909;DHT22;46780;48.128;-1.704;2022-07-23T13:05:51;28.30;35.90
60909;DHT22;46780;48.128;-1.704;2022-07-23T13:08:19;28.40;35.90
60909;DHT22;46780;48.128;-1.704;2022-07-23T13:10:45;28.50;36.30
60909;DHT22;46780;48.128;-1.704;2022-07-23T13:13:12;28.60;35.30
60909;DHT22;46780;48.128;-1.704;2022-07-23T13:15:39;28.50;36.10
60909;DHT22;46780;48.128;-1.704;2022-07-23T13:18:05;28.70;34.20
60909;DHT22;46780;48.128;-1.704;2022-07-23T13:20:33;28.50;34.10
60909;DHT22;46780;48.128;-1.704;2022-07-23T13:23:00;28.50;34.60
60909;DHT22;46780;48.128;-1.704;2022-07-23T13:25:27;28.50;35.00
60909;DHT22;46780;48.128;-1.704;2022-07-23T13:27:53;28.60;33.60
60909;DHT22;46780;48.128;-1.704;2022-07-23T13:30:20;28.40;33.30
60909;DHT22;46780;48.128;-1.704;2022-07-23T13:32:47;28.20;33.90
60909;DHT22;46780;48.128;-1.704;2022-07-23T13:35:14;28.10;33.90
60909;DHT22;46780;48.128;-1.704;2022-07-23T13:37:42;28.00;34.90
60909;DHT22;46780;48.128;-1.704;2022-07-23T13:40:09;28.10;34.60
60909;DHT22;46780;48.128;-1.704;2022-07-23T13:42:36;28.10;34.60
60909;DHT22;46780;48.128;-1.704;2022-07-23T13:45:03;28.20;34.20
60909;DHT22;46780;48.128;-1.704;2022-07-23T13:47:30;28.30;33.40
60909;DHT22;46780;48.128;-1.704;2022-07-23T13:49:56;28.20;33.90
60909;DHT22;46780;48.128;-1.704;2022-07-23T13:52:23;28.20;34.20
60909;DHT22;46780;48.128;-1.704;2022-07-23T13:54:51;28.20;34.20
60909;DHT22;46780;48.128;-1.704;2022-07-23T13:57:18;28.40;34.40
60909;DHT22;46780;48.128;-1.704;2022-07-23T13:59:44;28.50;33.60
60909;DHT22;46780;48.128;-1.704;2022-07-23T14:02:13;28.50;33.90
60909;DHT22;46780;48.128;-1.704;2022-07-23T14:04:41;28.50;34.50
60909;DHT22;46780;48.128;-1.704;2022-07-23T14:07:08;28.50;33.80
60909;DHT22;46780;48.128;-1.704;2022-07-23T14:09:35;28.50;34.10
60909;DHT22;46780;48.128;-1.704;2022-07-23T14:12:04;28.50;33.70
60909;DHT22;46780;48.128;-1.704;2022-07-23T14:14:31;28.60;32.70
60909;DHT22;46780;48.128;-1.704;2022-07-23T14:16:58;28.60;32.60
60909;DHT22;46780;48.128;-1.704;2022-07-23T14:19:25;28.50;32.80
60909;DHT22;46780;48.128;-1.704;2022-07-23T14:21:51;28.50;32.70
60909;DHT22;46780;48.128;-1.704;2022-07-23T14:24:18;28.40;32.50
60909;DHT22;46780;48.128;-1.704;2022-07-23T14:26:44;28.40;33.30
60909;DHT22;46780;48.128;-1.704;2022-07-23T14:29:12;28.30;33.70
60909;DHT22;46780;48.128;-1.704;2022-07-23T14:31:39;28.50;33.00
60909;DHT22;46780;48.128;-1.704;2022-07-23T14:34:05;28.50;32.90
60909;DHT22;46780;48.128;-1.704;2022-07-23T14:36:32;28.50;32.90
60909;DHT22;46780;48.128;-1.704;2022-07-23T14:38:58;28.60;33.30
60909;DHT22;46780;48.128;-1.704;2022-07-23T14:41:25;28.50;32.70
60909;DHT22;46780;48.128;-1.704;2022-07-23T14:43:51;28.30;33.30
60909;DHT22;46780;48.128;-1.704;2022-07-23T14:46:19;28.20;34.00
60909;DHT22;46780;48.128;-1.704;2022-07-23T14:48:46;28.20;33.80
60909;DHT22;46780;48.128;-1.704;2022-07-23T14:51:12;28.20;34.00
60909;DHT22;46780;48.128;-1.704;2022-07-23T14:53:39;28.20;33.70
60909;DHT22;46780;48.128;-1.704;2022-07-23T14:56:05;28.20;34.00
60909;DHT22;46780;48.128;-1.704;2022-07-23T14:58:32;28.20;34.30
60909;DHT22;46780;48.128;-1.704;2022-07-23T15:00:59;28.30;34.80
60909;DHT22;46780;48.128;-1.704;2022-07-23T15:03:27;28.30;34.50
60909;DHT22;46780;48.128;-1.704;2022-07-23T15:05:53;28.30;34.20
60909;DHT22;46780;48.128;-1.704;2022-07-23T15:08:20;28.30;34.20
60909;DHT22;46780;48.128;-1.704;2022-07-23T15:10:46;28.30;34.30
60909;DHT22;46780;48.128;-1.704;2022-07-23T15:13:13;28.40;34.80
60909;DHT22;46780;48.128;-1.704;2022-07-23T15:15:39;28.30;34.50
60909;DHT22;46780;48.128;-1.704;2022-07-23T15:18:06;28.20;34.30
60909;DHT22;46780;48.128;-1.704;2022-07-23T15:20:34;28.30;34.60
60909;DHT22;46780;48.128;-1.704;2022-07-23T15:23:01;28.20;34.50
60909;DHT22;46780;48.128;-1.704;2022-07-23T15:25:28;28.10;35.30
60909;DHT22;46780;48.128;-1.704;2022-07-23T15:27:55;28.10;35.90
60909;DHT22;46780;48.128;-1.704;2022-07-23T15:30:23;28.10;35.80
60909;DHT22;46780;48.128;-1.704;2022-07-23T15:32:50;28.10;35.00
60909;DHT22;46780;48.128;-1.704;2022-07-23T15:35:17;28.10;34.90
60909;DHT22;46780;48.128;-1.704;2022-07-23T15:37:45;28.10;34.90
60909;DHT22;46780;48.128;-1.704;2022-07-23T15:40:12;28.00;36.40
60909;DHT22;46780;48.128;-1.704;2022-07-23T15:42:39;28.00;35.20
60909;DHT22;46780;48.128;-1.704;2022-07-23T15:45:06;27.90;35.50
60909;DHT22;46780;48.128;-1.704;2022-07-23T15:47:33;27.90;35.70
60909;DHT22;46780;48.128;-1.704;2022-07-23T15:50:03;27.90;35.80
60909;DHT22;46780;48.128;-1.704;2022-07-23T15:52:29;27.90;35.80
60909;DHT22;46780;48.128;-1.704;2022-07-23T15:54:57;27.90;36.10
60909;DHT22;46780;48.128;-1.704;2022-07-23T15:57:24;27.80;35.80
60909;DHT22;46780;48.128;-1.704;2022-07-23T15:59:51;27.80;36.30
60909;DHT22;46780;48.128;-1.704;2022-07-23T16:02:17;27.90;36.00
60909;DHT22;46780;48.128;-1.704;2022-07-23T16:04:44;27.80;36.00
60909;DHT22;46780;48.128;-1.704;2022-07-23T16:07:10;27.80;36.30
60909;DHT22;46780;48.128;-1.704;2022-07-23T16:09:37;27.70;36.00
60909;DHT22;46780;48.128;-1.704;2022-07-23T16:12:06;27.70;36.00
60909;DHT22;46780;48.128;-1.704;2022-07-23T16:14:32;27.60;37.30
60909;DHT22;46780;48.128;-1.704;2022-07-23T16:16:59;27.60;36.50
60909;DHT22;46780;48.128;-1.704;2022-07-23T16:19:41;27.70;36.30
60909;DHT22;46780;48.128;-1.704;2022-07-23T16:22:52;27.70;36.50
60909;DHT22;46780;48.128;-1.704;2022-07-23T16:25:41;27.80;36.30
60909;DHT22;46780;48.128;-1.704;2022-07-23T16:31:05;27.70;36.60
60909;DHT22;46780;48.128;-1.704;2022-07-23T16:33:32;27.60;36.60
60909;DHT22;46780;48.128;-1.704;2022-07-23T16:35:58;27.70;36.80
60909;DHT22;46780;48.128;-1.704;2022-07-23T16:38:25;27.80;36.40
60909;DHT22;46780;48.128;-1.704;2022-07-23T16:40:52;27.70;36.70
60909;DHT22;46780;48.128;-1.704;2022-07-23T16:43:19;27.90;36.40
60909;DHT22;46780;48.128;-1.704;2022-07-23T16:45:48;28.00;36.20
60909;DHT22;46780;48.128;-1.704;2022-07-23T16:48:16;27.90;36.50
60909;DHT22;46780;48.128;-1.704;2022-07-23T16:50:43;27.90;36.60
60909;DHT22;46780;48.128;-1.704;2022-07-23T16:53:09;27.90;36.30
60909;DHT22;46780;48.128;-1.704;2022-07-23T16:55:36;27.90;36.60
60909;DHT22;46780;48.128;-1.704;2022-07-23T16:58:03;27.90;36.80
60909;DHT22;46780;48.128;-1.704;2022-07-23T17:00:30;27.90;36.30
60909;DHT22;46780;48.128;-1.704;2022-07-23T17:02:57;27.90;36.30
60909;DHT22;46780;48.128;-1.704;2022-07-23T17:05:25;27.90;35.90
60909;DHT22;46780;48.128;-1.704;2022-07-23T17:07:52;27.80;36.20
60909;DHT22;46780;48.128;-1.704;2022-07-23T17:10:19;27.70;36.40
60909;DHT22;46780;48.128;-1.704;2022-07-23T17:12:45;27.70;36.30
60909;DHT22;46780;48.128;-1.704;2022-07-23T17:15:12;27.70;36.30
60909;DHT22;46780;48.128;-1.704;2022-07-23T17:17:39;27.80;36.40
60909;DHT22;46780;48.128;-1.704;2022-07-23T17:20:06;27.70;36.60
60909;DHT22;46780;48.128;-1.704;2022-07-23T17:22:35;27.70;36.70
60909;DHT22;46780;48.128;-1.704;2022-07-23T17:25:02;27.70;36.90
60909;DHT22;46780;48.128;-1.704;2022-07-23T17:27:28;27.80;36.40
60909;DHT22;46780;48.128;-1.704;2022-07-23T17:29:55;27.80;36.60
60909;DHT22;46780;48.128;-1.704;2022-07-23T17:32:21;27.80;36.50
60909;DHT22;46780;48.128;-1.704;2022-07-23T17:34:48;27.80;36.70
60909;DHT22;46780;48.128;-1.704;2022-07-23T17:37:15;27.70;36.70
60909;DHT22;46780;48.128;-1.704;2022-07-23T17:39:42;27.80;36.70
60909;DHT22;46780;48.128;-1.704;2022-07-23T17:42:09;27.70;36.70
60909;DHT22;46780;48.128;-1.704;2022-07-23T17:44:35;27.80;36.60
60909;DHT22;46780;48.128;-1.704;2022-07-23T17:47:02;27.90;36.30
60909;DHT22;46780;48.128;-1.704;2022-07-23T17:49:28;27.90;36.40
60909;DHT22;46780;48.128;-1.704;2022-07-23T17:51:55;27.80;36.00
60909;DHT22;46780;48.128;-1.704;2022-07-23T17:54:21;27.70;36.40
60909;DHT22;46780;48.128;-1.704;2022-07-23T17:56:49;27.80;36.20
60909;DHT22;46780;48.128;-1.704;2022-07-23T17:59:16;27.80;36.40
60909;DHT22;46780;48.128;-1.704;2022-07-23T18:01:42;27.80;36.30
60909;DHT22;46780;48.128;-1.704;2022-07-23T18:04:09;27.80;36.30
60909;DHT22;46780;48.128;-1.704;2022-07-23T18:06:35;27.70;36.70
60909;DHT22;46780;48.128;-1.704;2022-07-23T18:09:02;27.70;36.90
60909;DHT22;46780;48.128;-1.704;2022-07-23T18:11:28;27.70;37.00
60909;DHT22;46780;48.128;-1.704;2022-07-23T18:13:56;27.80;36.70
60909;DHT22;46780;48.128;-1.704;2022-07-23T18:16:23;27.80;36.60
60909;DHT22;46780;48.128;-1.704;2022-07-23T18:18:49;27.80;36.80
60909;DHT22;46780;48.128;-1.704;2022-07-23T18:21:16;27.70;36.60
60909;DHT22;46780;48.128;-1.704;2022-07-23T18:23:43;27.70;36.30
60909;DHT22;46780;48.128;-1.704;2022-07-23T18:26:10;27.70;36.90
60909;DHT22;46780;48.128;-1.704;2022-07-23T18:28:36;27.60;36.80
60909;DHT22;46780;48.128;-1.704;2022-07-23T18:31:04;27.60;36.80
60909;DHT22;46780;48.128;-1.704;2022-07-23T18:33:31;27.70;36.90